createdAt,value
2022-10-04T00:01:19.508Z,34.10
2022-10-04T00:03:28.879Z,34.00
2022-10-04T00:05:32.404Z,34.80
2022-10-04T00:07:40.201Z,34.60
2022-10-04T00:09:45.660Z,34.60
2022-10-04T00:11:48.601Z,35.40
2022-10-04T00:13:55.268Z,35.40
2022-10-04T00:15:57.350Z,35.60
2022-10-04T00:18:20.880Z,35.10
2022-10-04T00:20:50.617Z,35.90
2022-10-04T00:23:23.643Z,36.10
2022-10-04T00:25:36.450Z,35.90
2022-10-04T00:27:39.574Z,35.40
2022-10-04T00:29:45.045Z,34.80
2022-10-04T00:32:08.268Z,34.60
2022-10-04T00:34:09.920Z,35.40
2022-10-04T00:36:26.662Z,34.60
2022-10-04T00:38:29.173Z,35.20
2022-10-04T00:40:55.324Z,34.60
2022-10-04T00:43:07.016Z,35.70
2022-10-04T00:45:18.187Z,35.30
2022-10-04T00:47:31.723Z,35.50
2022-10-04T00:49:40.259Z,35.40
2022-10-04T00:51:47.325Z,35.30
2022-10-04T00:54:12.387Z,35.40
2022-10-04T00:56:22.232Z,35.80
2022-10-04T00:58:55.260Z,35.30
2022-10-04T01:00:58.631Z,35.80
2022-10-04T01:03:00.358Z,35.10
2022-10-04T01:05:04.655Z,34.70
2022-10-04T01:07:08.310Z,35.10
2022-10-04T01:09:12.178Z,35.10
2022-10-04T01:11:19.319Z,35.10
2022-10-04T01:13:51.543Z,35.20
2022-10-04T01:16:07.194Z,35.70
2022-10-04T01:18:29.092Z,35.30
2022-10-04T01:20:37.949Z,35.20
2022-10-04T01:22:50.635Z,35.40
2022-10-04T01:24:52.440Z,35.80
2022-10-04T01:26:54.400Z,35.10
2022-10-04T01:29:01.874Z,35.10
2022-10-04T01:31:03.736Z,35.30
2022-10-04T01:33:06.962Z,35.30
2022-10-04T01:35:11.693Z,35.20
2022-10-04T01:37:14.467Z,35.30
2022-10-04T01:39:18.266Z,35.30
2022-10-04T01:41:27.764Z,35.40
2022-10-04T01:43:37.210Z,35.50
2022-10-04T01:45:44.108Z,35.50
2022-10-04T01:48:01.756Z,35.50
2022-10-04T01:50:15.652Z,35.50
2022-10-04T01:52:22.844Z,35.30
2022-10-04T01:54:34.731Z,35.20
2022-10-04T01:56:48.307Z,35.90
2022-10-04T01:58:59.673Z,35.10
2022-10-04T02:01:07.465Z,35.00
2022-10-04T02:03:20.214Z,34.90
2022-10-04T02:05:44.964Z,34.90
2022-10-04T02:07:48.894Z,35.10
2022-10-04T02:09:56.476Z,35.10
2022-10-04T02:11:59.619Z,35.10
2022-10-04T02:14:01.473Z,34.80
2022-10-04T02:16:08.636Z,34.80
2022-10-04T02:18:14.029Z,34.80
2022-10-04T02:20:22.492Z,35.00
2022-10-04T02:22:25.544Z,35.20
2022-10-04T02:24:27.428Z,35.00
2022-10-04T02:26:29.276Z,35.00
2022-10-04T02:28:32.962Z,35.10
2022-10-04T02:30:40.335Z,35.20
2022-10-04T02:32:59.758Z,35.20
2022-10-04T02:35:03.895Z,34.90
2022-10-04T02:37:07.591Z,35.40
2022-10-04T02:39:27.366Z,34.70
2022-10-04T02:41:41.341Z,35.40
2022-10-04T02:44:13.486Z,35.30
2022-10-04T02:46:23.347Z,35.60
2022-10-04T02:48:49.490Z,35.20
2022-10-04T02:50:55.881Z,35.70
2022-10-04T02:53:04.511Z,35.30
2022-10-04T02:55:24.235Z,35.30
2022-10-04T02:57:26.315Z,35.40
2022-10-04T02:59:33.512Z,35.00
2022-10-04T03:01:43.692Z,35.10
2022-10-04T03:03:47.378Z,35.20
2022-10-04T03:06:08.888Z,35.00
2022-10-04T03:08:11.998Z,35.40
2022-10-04T03:10:15.283Z,35.00
2022-10-04T03:12:17.482Z,35.10
2022-10-04T03:14:24.990Z,35.00
2022-10-04T03:16:27.020Z,35.10
2022-10-04T03:18:31.215Z,34.90
2022-10-04T03:20:37.785Z,34.90
2022-10-04T03:22:44.824Z,35.00
2022-10-04T03:24:53.334Z,34.90
2022-10-04T03:26:57.069Z,35.60
2022-10-04T03:28:59.909Z,34.90
2022-10-04T03:31:01.819Z,34.60
2022-10-04T03:33:05.200Z,34.70
2022-10-04T03:35:17.521Z,35.00
2022-10-04T03:37:21.163Z,35.00
2022-10-04T03:39:45.153Z,34.70
2022-10-04T03:41:47.630Z,35.30
2022-10-04T03:43:50.351Z,34.70
2022-10-04T03:45:52.614Z,34.70
2022-10-04T03:48:00.662Z,34.60
2022-10-04T03:50:12.973Z,34.70
2022-10-04T03:52:31.432Z,34.90
2022-10-04T03:54:34.771Z,34.50
2022-10-04T03:56:37.345Z,34.20
2022-10-04T03:58:39.614Z,34.10
2022-10-04T04:00:54.929Z,34.20
2022-10-04T04:03:00.568Z,34.30
2022-10-04T04:05:16.790Z,34.00
2022-10-04T04:07:28.586Z,34.00
2022-10-04T04:09:48.573Z,34.40
2022-10-04T04:11:51.924Z,34.70
2022-10-04T04:14:08.703Z,34.50
2022-10-04T04:16:11.426Z,34.70
2022-10-04T04:18:24.502Z,34.70
2022-10-04T04:20:31.339Z,34.70
2022-10-04T04:22:34.658Z,34.70
2022-10-04T04:24:36.616Z,34.60
2022-10-04T04:26:49.981Z,34.60
2022-10-04T04:28:58.250Z,34.80
2022-10-04T04:31:05.861Z,34.70
2022-10-04T04:33:20.277Z,34.90
2022-10-04T04:35:32.365Z,34.80
2022-10-04T04:37:35.859Z,35.20
2022-10-04T04:39:37.677Z,34.90
2022-10-04T04:41:41.323Z,35.00
2022-10-04T04:43:45.023Z,35.10
2022-10-04T04:46:02.910Z,35.00
2022-10-04T04:48:07.008Z,34.90
2022-10-04T04:50:24.404Z,34.80
2022-10-04T04:52:32.179Z,34.90
2022-10-04T04:54:34.111Z,34.70
2022-10-04T04:56:36.013Z,34.60
2022-10-04T04:58:41.994Z,34.70
2022-10-04T05:00:46.955Z,34.80
2022-10-04T05:02:58.631Z,34.70
2022-10-04T05:05:31.533Z,35.60
2022-10-04T05:07:33.446Z,35.00
2022-10-04T05:09:38.436Z,34.70
2022-10-04T05:11:42.238Z,34.70
2022-10-04T05:13:56.946Z,34.60
2022-10-04T05:15:59.807Z,35.00
2022-10-04T05:18:13.389Z,34.60
2022-10-04T05:20:15.485Z,34.50
2022-10-04T05:22:21.627Z,34.40
2022-10-04T05:24:33.129Z,34.30
2022-10-04T05:26:34.979Z,34.20
2022-10-04T05:28:36.863Z,34.10
2022-10-04T05:30:58.888Z,34.00
2022-10-04T05:33:06.546Z,34.10
2022-10-04T05:35:20.064Z,34.00
2022-10-04T05:37:25.250Z,34.10
2022-10-04T05:39:49.322Z,34.00
2022-10-04T05:42:17.575Z,34.00
2022-10-04T05:44:22.857Z,33.70
2022-10-04T05:46:28.661Z,34.80
2022-10-04T05:48:31.768Z,34.80
2022-10-04T05:50:42.554Z,34.80
2022-10-04T05:52:46.223Z,35.00
2022-10-04T05:55:26.893Z,34.80
2022-10-04T05:57:35.831Z,34.90
2022-10-04T06:00:16.400Z,34.80
2022-10-04T06:02:29.495Z,35.30
2022-10-04T06:04:38.479Z,35.30
2022-10-04T06:06:49.278Z,35.30
2022-10-04T06:09:10.253Z,35.20
2022-10-04T06:11:30.483Z,35.30
2022-10-04T06:14:00.146Z,35.40
2022-10-04T06:16:23.495Z,35.40
2022-10-04T06:18:25.240Z,35.20
2022-10-04T06:20:32.632Z,35.00
2022-10-04T06:22:34.452Z,35.00
2022-10-04T06:24:39.847Z,35.00
2022-10-04T06:26:53.609Z,35.10
2022-10-04T06:29:03.280Z,35.50
2022-10-04T06:31:26.042Z,35.60
2022-10-04T06:33:39.994Z,36.00
2022-10-04T06:36:07.247Z,35.90
2022-10-04T06:38:26.982Z,36.10
2022-10-04T06:40:46.933Z,36.20
2022-10-04T06:43:16.587Z,36.20
2022-10-04T06:45:30.091Z,36.60
2022-10-04T06:48:06.190Z,36.30
2022-10-04T06:50:33.860Z,36.90
2022-10-04T06:52:55.096Z,36.90
2022-10-04T06:55:33.140Z,36.60
2022-10-04T06:58:18.637Z,37.20
2022-10-04T07:00:27.556Z,37.50
2022-10-04T07:02:59.886Z,37.10
2022-10-04T07:05:12.441Z,36.90
2022-10-04T07:07:36.341Z,37.30
2022-10-04T07:09:41.888Z,36.80
2022-10-04T07:12:04.047Z,36.50
2022-10-04T07:14:35.738Z,37.40
2022-10-04T07:16:44.702Z,37.20
2022-10-04T07:19:20.384Z,37.10
2022-10-04T07:21:26.289Z,37.70
2022-10-04T07:23:33.939Z,36.90
2022-10-04T07:25:45.312Z,37.80
2022-10-04T07:28:31.419Z,38.00
2022-10-04T07:30:38.792Z,38.60
2022-10-04T07:32:46.411Z,38.90
2022-10-04T07:35:07.180Z,39.50
2022-10-04T07:37:12.922Z,39.90
2022-10-04T07:39:25.689Z,39.30
2022-10-04T07:41:54.168Z,39.60
2022-10-04T07:44:05.239Z,39.50
2022-10-04T07:46:38.745Z,39.60
2022-10-04T07:48:41.526Z,40.00
2022-10-04T07:51:01.919Z,39.20
2022-10-04T07:53:18.261Z,39.40
2022-10-04T07:55:33.146Z,40.20
2022-10-04T07:58:12.324Z,40.40
2022-10-04T08:00:19.666Z,40.70
2022-10-04T08:02:39.936Z,39.70
2022-10-04T08:05:20.167Z,40.10
2022-10-04T08:07:31.773Z,40.50
2022-10-04T08:10:03.547Z,40.10
2022-10-04T08:12:24.090Z,40.50
2022-10-04T08:14:53.120Z,39.90
2022-10-04T08:17:00.721Z,39.50
2022-10-04T08:19:12.585Z,39.80
2022-10-04T08:21:18.745Z,39.90
2022-10-04T08:23:38.643Z,39.60
2022-10-04T08:25:40.314Z,39.90
2022-10-04T08:28:44.517Z,39.70
2022-10-04T08:31:05.303Z,40.40
2022-10-04T08:33:20.701Z,40.20
2022-10-04T08:35:37.444Z,39.60
2022-10-04T08:38:08.320Z,40.40
2022-10-04T08:40:55.887Z,41.20
2022-10-04T08:43:15.637Z,41.20
2022-10-04T08:45:38.214Z,41.50
2022-10-04T08:48:17.141Z,41.30
2022-10-04T08:50:50.034Z,42.40
2022-10-04T08:52:58.713Z,43.00
2022-10-04T08:55:12.326Z,43.50
2022-10-04T08:57:51.126Z,44.20
2022-10-04T09:00:08.652Z,45.00
2022-10-04T09:02:41.593Z,44.60
2022-10-04T09:05:24.350Z,43.50
2022-10-04T09:07:35.407Z,42.60
2022-10-04T09:09:55.428Z,41.40
2022-10-04T09:12:21.293Z,41.00
2022-10-04T09:15:02.287Z,40.90
2022-10-04T09:17:25.314Z,41.00
2022-10-04T09:20:26.185Z,39.70
2022-10-04T09:22:57.309Z,39.80
2022-10-04T09:25:31.575Z,39.40
2022-10-04T09:27:55.752Z,39.80
2022-10-04T09:30:25.644Z,39.80
2022-10-04T09:32:51.218Z,39.80
2022-10-04T09:35:06.621Z,39.00
2022-10-04T09:37:33.506Z,38.00
2022-10-04T09:40:13.644Z,36.70
2022-10-04T09:42:49.833Z,35.60
2022-10-04T09:45:27.604Z,36.30
2022-10-04T09:47:37.739Z,35.40
2022-10-04T09:49:39.405Z,34.50
2022-10-04T09:52:16.584Z,34.60
2022-10-04T09:54:41.080Z,34.60
2022-10-04T09:56:53.197Z,34.50
2022-10-04T09:59:42.422Z,34.20
2022-10-04T10:02:00.064Z,33.60
2022-10-04T10:04:28.456Z,32.70
2022-10-04T10:06:41.629Z,32.80
2022-10-04T10:09:08.357Z,32.60
2022-10-04T10:11:54.102Z,32.30
2022-10-04T10:14:17.386Z,33.00
2022-10-04T10:17:01.046Z,33.00
2022-10-04T10:19:28.463Z,30.40
2022-10-04T10:21:54.970Z,30.50
2022-10-04T10:24:17.406Z,30.10
2022-10-04T10:26:51.684Z,29.90
2022-10-04T10:29:08.592Z,30.40
2022-10-04T10:31:47.983Z,30.10
2022-10-04T10:34:24.339Z,29.80
2022-10-04T10:37:00.990Z,30.30
2022-10-04T10:39:21.089Z,29.90
2022-10-04T10:41:50.731Z,29.70
2022-10-04T10:44:14.087Z,30.00
2022-10-04T10:46:38.439Z,30.00
2022-10-04T10:48:45.898Z,29.70
2022-10-04T10:51:03.614Z,29.90
2022-10-04T10:53:29.935Z,30.00
2022-10-04T10:56:08.681Z,30.50
2022-10-04T10:58:34.080Z,29.50
2022-10-04T11:00:57.546Z,29.50
2022-10-04T11:03:23.140Z,29.60
2022-10-04T11:05:42.877Z,28.70
2022-10-04T11:07:52.506Z,28.30
2022-10-04T11:10:06.787Z,28.30
2022-10-04T11:12:26.384Z,28.60
2022-10-04T11:14:49.628Z,27.90
2022-10-04T11:17:23.656Z,28.00
2022-10-04T11:20:05.620Z,28.10
2022-10-04T11:22:19.684Z,27.90
2022-10-04T11:24:43.323Z,27.50
2022-10-04T11:27:03.105Z,27.40
2022-10-04T11:29:41.286Z,27.50
2022-10-04T11:32:01.295Z,27.40
2022-10-04T11:34:23.725Z,27.20
2022-10-04T11:36:37.655Z,27.40
2022-10-04T11:39:16.313Z,27.30
2022-10-04T11:41:51.988Z,27.80
2022-10-04T11:44:05.670Z,27.50
2022-10-04T11:46:36.176Z,27.20
2022-10-04T11:49:17.474Z,27.40
2022-10-04T11:51:31.366Z,26.60
2022-10-04T11:53:39.519Z,26.30
2022-10-04T11:56:04.172Z,27.10
2022-10-04T11:58:36.981Z,26.90
2022-10-04T12:01:14.995Z,26.50
2022-10-04T12:03:42.670Z,26.50
2022-10-04T12:06:07.399Z,26.50
2022-10-04T12:08:27.563Z,25.50
2022-10-04T12:10:36.380Z,25.70
2022-10-04T12:12:38.270Z,25.70
2022-10-04T12:15:05.019Z,25.40
2022-10-04T12:17:52.484Z,25.70
2022-10-04T12:20:30.185Z,25.80
2022-10-04T12:22:43.175Z,25.80
2022-10-04T12:24:48.587Z,24.90
2022-10-04T12:27:11.707Z,24.70
2022-10-04T12:29:34.287Z,24.50
2022-10-04T12:31:45.783Z,24.40
2022-10-04T12:34:14.760Z,23.90
2022-10-04T12:36:43.705Z,23.40
2022-10-04T12:39:05.825Z,24.20
2022-10-04T12:41:26.555Z,22.80
2022-10-04T12:44:00.613Z,22.70
2022-10-04T12:46:11.518Z,22.60
2022-10-04T12:48:44.853Z,22.50
2022-10-04T12:50:49.500Z,22.90
2022-10-04T12:52:57.761Z,22.30
2022-10-04T12:55:21.679Z,22.80
2022-10-04T12:57:29.502Z,23.70
2022-10-04T12:59:52.366Z,23.70
2022-10-04T13:01:57.318Z,23.70
2022-10-04T13:04:23.323Z,23.30
2022-10-04T13:06:39.925Z,23.10
2022-10-04T13:08:57.525Z,22.70
2022-10-04T13:11:45.851Z,22.90
2022-10-04T13:14:06.814Z,22.50
2022-10-04T13:18:53.415Z,22.20
2022-10-04T13:21:00.777Z,22.10
2022-10-04T13:23:38.188Z,22.70
2022-10-04T13:26:03.350Z,22.60
2022-10-04T13:28:31.836Z,22.50
2022-10-04T13:31:24.384Z,22.70
2022-10-04T13:34:00.129Z,22.40
2022-10-04T13:36:10.624Z,20.90
2022-10-04T13:38:31.161Z,20.70
2022-10-04T13:40:58.903Z,20.80
2022-10-04T13:43:26.146Z,20.70
2022-10-04T13:45:43.639Z,21.10
2022-10-04T13:48:02.558Z,21.90
2022-10-04T13:50:04.304Z,21.90
2022-10-04T13:52:36.090Z,22.00
2022-10-04T13:55:22.257Z,22.60
2022-10-04T13:58:02.295Z,22.40
2022-10-04T14:00:19.150Z,22.70
2022-10-04T14:02:57.477Z,22.50
2022-10-04T14:05:32.407Z,22.70
2022-10-04T14:07:42.847Z,22.70
2022-10-04T14:10:12.642Z,22.60
2022-10-04T14:12:17.468Z,22.90
2022-10-04T14:14:57.171Z,22.40
2022-10-04T14:17:05.246Z,22.60
2022-10-04T14:19:26.630Z,22.50
2022-10-04T14:21:50.222Z,22.30
2022-10-04T14:24:23.106Z,21.80
2022-10-04T14:26:49.357Z,21.80
2022-10-04T14:29:10.767Z,21.70
2022-10-04T14:31:17.535Z,21.60
2022-10-04T14:33:35.417Z,21.50
2022-10-04T14:36:02.010Z,21.30
2022-10-04T14:38:35.199Z,21.30
2022-10-04T14:41:01.389Z,21.00
2022-10-04T14:43:22.552Z,21.00
2022-10-04T14:45:48.716Z,20.80
2022-10-04T14:48:26.675Z,20.50
2022-10-04T14:50:52.852Z,20.60
2022-10-04T14:52:54.802Z,20.80
2022-10-04T14:55:12.221Z,20.90
2022-10-04T14:57:38.895Z,20.90
2022-10-04T15:00:16.875Z,20.90
2022-10-04T15:02:31.806Z,21.00
2022-10-04T15:04:48.989Z,20.80
2022-10-04T15:06:55.462Z,20.70
2022-10-04T15:09:12.589Z,20.60
2022-10-04T15:11:40.983Z,20.90
2022-10-04T15:14:01.257Z,20.60
2022-10-04T15:16:04.309Z,19.90
2022-10-04T15:18:31.332Z,19.70
2022-10-04T15:20:47.359Z,19.60
2022-10-04T15:23:14.775Z,19.40
2022-10-04T15:25:41.226Z,19.40
2022-10-04T15:27:54.403Z,19.60
2022-10-04T15:30:18.001Z,19.90
2022-10-04T15:32:44.793Z,20.00
2022-10-04T15:35:03.461Z,20.00
2022-10-04T15:37:05.331Z,20.20
2022-10-04T15:39:39.234Z,20.30
2022-10-04T15:42:03.817Z,19.80
2022-10-04T15:44:18.303Z,19.20
2022-10-04T15:46:34.389Z,19.60
2022-10-04T15:48:52.452Z,19.90
2022-10-04T15:50:54.142Z,19.80
2022-10-04T15:53:23.443Z,19.90
2022-10-04T15:55:48.949Z,20.10
2022-10-04T15:58:15.343Z,20.20
2022-10-04T16:00:28.995Z,20.30
2022-10-04T16:03:00.391Z,20.40
2022-10-04T16:05:16.905Z,20.40
2022-10-04T16:07:50.861Z,20.60
2022-10-04T16:10:19.491Z,20.80
2022-10-04T16:12:33.096Z,20.90
2022-10-04T16:14:46.875Z,21.10
2022-10-04T16:17:15.068Z,21.00
2022-10-04T16:19:31.337Z,21.30
2022-10-04T16:21:48.435Z,21.40
2022-10-04T16:24:23.565Z,21.50
2022-10-04T16:26:27.454Z,21.70
2022-10-04T16:28:39.366Z,21.70
2022-10-04T16:30:48.154Z,22.00
2022-10-04T16:32:59.018Z,22.10
2022-10-04T16:35:07.910Z,22.20
2022-10-04T16:37:33.033Z,22.10
2022-10-04T16:39:59.613Z,22.30
2022-10-04T16:42:15.405Z,22.50
2022-10-04T16:44:55.767Z,22.60
2022-10-04T16:47:03.908Z,22.80
2022-10-04T16:49:30.701Z,22.70
2022-10-04T16:51:50.790Z,22.90
2022-10-04T16:54:07.453Z,22.90
2022-10-04T16:56:26.171Z,23.10
2022-10-04T16:58:27.943Z,23.10
2022-10-04T17:00:35.641Z,23.10
2022-10-04T17:02:52.196Z,23.20
2022-10-04T17:04:59.552Z,23.10
2022-10-04T17:07:23.176Z,23.00
2022-10-04T17:09:37.455Z,23.10
2022-10-04T17:11:47.892Z,23.10
2022-10-04T17:13:56.939Z,23.10
2022-10-04T17:16:04.705Z,23.20
2022-10-04T17:18:19.747Z,23.10
2022-10-04T17:20:45.114Z,23.10
2022-10-04T17:23:23.843Z,23.20
2022-10-04T17:25:57.461Z,23.30
2022-10-04T17:28:32.621Z,23.40
2022-10-04T17:31:04.069Z,23.50
2022-10-04T17:33:26.940Z,23.60
2022-10-04T17:36:00.945Z,23.70
2022-10-04T17:38:35.165Z,23.80
2022-10-04T17:41:32.534Z,23.80
2022-10-04T17:44:00.669Z,23.90
2022-10-04T17:46:08.431Z,23.90
2022-10-04T17:48:47.110Z,24.50
2022-10-04T17:51:42.585Z,24.20
2022-10-04T17:54:08.151Z,24.30
2022-10-04T17:56:11.643Z,24.20
2022-10-04T17:58:30.595Z,24.20
2022-10-04T18:00:59.078Z,24.40
2022-10-04T18:03:20.204Z,24.60
2022-10-04T18:05:28.567Z,24.50
2022-10-04T18:07:56.648Z,24.70
2022-10-04T18:10:04.212Z,24.90
2022-10-04T18:12:28.507Z,24.90
2022-10-04T18:14:30.202Z,25.10
2022-10-04T18:16:46.540Z,25.10
2022-10-04T18:18:49.138Z,25.00
2022-10-04T18:20:54.514Z,25.00
2022-10-04T18:23:00.446Z,25.10
2022-10-04T18:25:14.594Z,25.00
2022-10-04T18:27:18.703Z,25.00
2022-10-04T18:29:39.578Z,25.00
2022-10-04T18:31:41.725Z,25.20
2022-10-04T18:33:43.837Z,24.80
2022-10-04T18:36:14.305Z,25.10
2022-10-04T18:38:27.625Z,25.50
2022-10-04T18:40:41.620Z,25.60
2022-10-04T18:42:52.793Z,25.70
2022-10-04T18:45:05.218Z,25.70
2022-10-04T18:47:16.885Z,25.90
2022-10-04T18:49:27.194Z,26.00
2022-10-04T18:51:39.813Z,26.00
2022-10-04T18:53:50.692Z,25.90
2022-10-04T18:55:58.773Z,26.10
2022-10-04T18:58:48.359Z,26.00
2022-10-04T19:01:35.240Z,26.30
2022-10-04T19:04:01.995Z,26.30
2022-10-04T19:06:19.175Z,26.40
2022-10-04T19:08:53.225Z,26.50
2022-10-04T19:11:16.059Z,26.60
2022-10-04T19:13:24.158Z,26.70
2022-10-04T19:16:01.725Z,26.70
2022-10-04T19:18:15.398Z,26.90
2022-10-04T19:20:37.723Z,26.60
2022-10-04T19:22:57.419Z,27.00
2022-10-04T19:25:27.451Z,26.70
2022-10-04T19:27:37.021Z,27.20
2022-10-04T19:30:16.004Z,27.10
2022-10-04T19:32:36.468Z,27.50
2022-10-04T19:34:58.058Z,27.10
2022-10-04T19:37:06.288Z,27.20
2022-10-04T19:39:12.667Z,27.10
2022-10-04T19:41:31.267Z,27.20
2022-10-04T19:43:45.280Z,27.60
2022-10-04T19:46:11.900Z,27.80
2022-10-04T19:48:24.631Z,27.70
2022-10-04T19:50:39.575Z,27.80
2022-10-04T19:53:02.804Z,28.30
2022-10-04T19:55:42.488Z,28.40
2022-10-04T19:57:52.806Z,28.50
2022-10-04T19:59:59.123Z,28.20
2022-10-04T20:02:01.390Z,28.10
2022-10-04T20:04:31.265Z,28.10
2022-10-04T20:06:33.818Z,28.40
2022-10-04T20:08:51.161Z,28.10
2022-10-04T20:11:15.971Z,28.70
2022-10-04T20:13:21.339Z,28.90
2022-10-04T20:15:35.139Z,28.60
2022-10-04T20:17:40.035Z,28.70
2022-10-04T20:19:43.277Z,28.60
2022-10-04T20:21:46.010Z,28.80
2022-10-04T20:23:56.685Z,28.70
2022-10-04T20:25:59.700Z,28.70
2022-10-04T20:28:02.857Z,28.80
2022-10-04T20:30:14.788Z,28.90
2022-10-04T20:32:36.286Z,28.90
2022-10-04T20:34:37.978Z,29.20
2022-10-04T20:36:52.056Z,28.80
2022-10-04T20:38:54.083Z,29.20
2022-10-04T20:40:56.619Z,28.90
2022-10-04T20:43:13.574Z,28.90
2022-10-04T20:45:24.559Z,29.30
2022-10-04T20:47:46.808Z,29.30
2022-10-04T20:49:49.536Z,29.40
2022-10-04T20:51:51.751Z,29.20
2022-10-04T20:53:53.684Z,29.90
2022-10-04T20:56:14.160Z,29.50
2022-10-04T20:58:35.362Z,29.80
2022-10-04T21:00:56.285Z,29.80
2022-10-04T21:03:18.021Z,29.90
2022-10-04T21:05:24.762Z,29.80
2022-10-04T21:07:27.358Z,29.90
2022-10-04T21:09:33.793Z,29.90
2022-10-04T21:11:49.475Z,30.00
2022-10-04T21:14:01.002Z,30.10
2022-10-04T21:16:03.099Z,30.40
2022-10-04T21:18:07.222Z,30.40
2022-10-04T21:20:35.943Z,30.50
2022-10-04T21:22:38.394Z,30.50
2022-10-04T21:24:57.177Z,30.50
2022-10-04T21:26:58.889Z,30.80
2022-10-04T21:29:02.413Z,30.40
2022-10-04T21:31:04.835Z,30.50
2022-10-04T21:33:06.682Z,30.60
2022-10-04T21:35:09.617Z,30.70
2022-10-04T21:37:11.435Z,30.70
2022-10-04T21:39:13.183Z,30.70
2022-10-04T21:41:14.938Z,30.80
2022-10-04T21:43:16.647Z,30.80
2022-10-04T21:45:18.366Z,30.80
2022-10-04T21:47:21.741Z,30.80
2022-10-04T21:49:23.504Z,31.00
2022-10-04T21:51:25.222Z,31.10
2022-10-04T21:53:26.984Z,31.20
2022-10-04T21:55:28.766Z,31.90
2022-10-04T21:57:35.385Z,31.20
2022-10-04T21:59:37.446Z,31.10
2022-10-04T22:01:39.153Z,31.10
2022-10-04T22:03:41.053Z,31.00
2022-10-04T22:05:42.900Z,31.10
2022-10-04T22:07:44.724Z,31.10
2022-10-04T22:09:46.515Z,31.10
2022-10-04T22:11:48.573Z,31.80
2022-10-04T22:13:51.221Z,31.30
2022-10-04T22:15:53.126Z,31.30
2022-10-04T22:17:55.322Z,31.20
2022-10-04T22:19:57.169Z,31.20
2022-10-04T22:21:58.897Z,31.10
2022-10-04T22:24:03.873Z,31.10
2022-10-04T22:26:13.719Z,31.40
2022-10-04T22:28:27.437Z,31.30
2022-10-04T22:30:33.545Z,31.20
2022-10-04T22:32:35.278Z,31.30
2022-10-04T22:34:37.539Z,31.20
2022-10-04T22:36:39.948Z,31.20
2022-10-04T22:39:06.654Z,31.30
2022-10-04T22:41:14.161Z,31.30
2022-10-04T22:43:16.447Z,31.30
2022-10-04T22:45:27.466Z,31.20
2022-10-04T22:47:32.072Z,31.30
2022-10-04T22:49:39.622Z,31.60
2022-10-04T22:51:43.604Z,31.50
2022-10-04T22:53:47.709Z,31.70
2022-10-04T22:55:50.684Z,31.60
2022-10-04T22:57:52.597Z,31.60
2022-10-04T22:59:54.445Z,31.50
2022-10-04T23:01:58.452Z,31.50
2022-10-04T23:04:00.677Z,31.80
2022-10-04T23:06:03.134Z,32.10
2022-10-04T23:08:04.823Z,32.10
2022-10-04T23:10:07.843Z,32.20
2022-10-04T23:12:09.868Z,32.00
2022-10-04T23:14:12.413Z,32.10
2022-10-04T23:16:19.396Z,32.10
2022-10-04T23:18:21.266Z,32.00
2022-10-04T23:20:23.726Z,32.10
2022-10-04T23:22:30.542Z,32.60
2022-10-04T23:24:32.558Z,32.80
2022-10-04T23:26:39.940Z,32.90
2022-10-04T23:28:44.777Z,33.10
2022-10-04T23:30:58.368Z,33.00
2022-10-04T23:33:01.981Z,33.30
2022-10-04T23:35:05.478Z,33.40
2022-10-04T23:37:37.866Z,33.50
2022-10-04T23:39:39.830Z,34.00
2022-10-04T23:41:42.827Z,33.90
2022-10-04T23:43:45.139Z,34.40
2022-10-04T23:45:47.045Z,34.70
2022-10-04T23:47:54.105Z,34.90
2022-10-04T23:49:56.089Z,35.10
2022-10-04T23:52:03.246Z,35.20
2022-10-04T23:54:10.129Z,35.40
2022-10-04T23:56:24.270Z,35.50
2022-10-04T23:58:36.374Z,35.60
